sensor_id;sensor_type;location;lat;lon;timestamp;pressure;altitude;pressure_sealevel;temperature;humidity
13209;BME280;6669;42.678;23.332;2023-05-14T00:00:08;94977.16;;;13.79;100.00
13209;BME280;6669;42.678;23.332;2023-05-14T00:02:37;94969.97;;;13.81;100.00
13209;BME280;6669;42.678;23.332;2023-05-14T00:05:05;94976.63;;;13.84;100.00
13209;BME280;6669;42.678;23.332;2023-05-14T00:07:33;94975.88;;;13.90;100.00
13209;BME280;6669;42.678;23.332;2023-05-14T00:10:01;94972.09;;;13.93;100.00
13209;BME280;6669;42.678;23.332;2023-05-14T00:12:30;94972.28;;;13.91;100.00
13209;BME280;6669;42.678;23.332;2023-05-14T00:14:58;94975.50;;;13.93;100.00
13209;BME280;6669;42.678;23.332;2023-05-14T00:17:28;94970.22;;;13.86;100.00
13209;BME280;6669;42.678;23.332;2023-05-14T00:19:56;94961.66;;;13.93;100.00
13209;BME280;6669;42.678;23.332;2023-05-14T00:22:25;94959.84;;;13.78;100.00
13209;BME280;6669;42.678;23.332;2023-05-14T00:24:52;94957.09;;;13.80;100.00
13209;BME280;6669;42.678;23.332;2023-05-14T00:27:20;94954.47;;;13.80;100.00
13209;BME280;6669;42.678;23.332;2023-05-14T00:29:48;94947.50;;;13.87;100.00
13209;BME280;6669;42.678;23.332;2023-05-14T00:32:16;94945.47;;;13.82;100.00
13209;BME280;6669;42.678;23.332;2023-05-14T00:34:45;94927.63;;;13.71;100.00
13209;BME280;6669;42.678;23.332;2023-05-14T00:37:13;94945.47;;;13.82;100.00
13209;BME280;6669;42.678;23.332;2023-05-14T00:39:41;94951.66;;;13.81;100.00
13209;BME280;6669;42.678;23.332;2023-05-14T00:42:09;94951.03;;;13.79;100.00
13209;BME280;6669;42.678;23.332;2023-05-14T00:44:37;94951.84;;;13.80;100.00
13209;BME280;6669;42.678;23.332;2023-05-14T00:47:06;94947.03;;;13.83;100.00
13209;BME280;6669;42.678;23.332;2023-05-14T00:49:34;94938.94;;;13.78;100.00
13209;BME280;6669;42.678;23.332;2023-05-14T00:52:07;94942.75;;;13.76;100.00
13209;BME280;6669;42.678;23.332;2023-05-14T00:54:35;94932.75;;;13.64;100.00
13209;BME280;6669;42.678;23.332;2023-05-14T00:57:03;94937.19;;;13.64;100.00
13209;BME280;6669;42.678;23.332;2023-05-14T00:59:33;94942.59;;;13.62;100.00
13209;BME280;6669;42.678;23.332;2023-05-14T01:02:01;94933.84;;;13.70;100.00
13209;BME280;6669;42.678;23.332;2023-05-14T01:04:29;94934.84;;;13.69;100.00
13209;BME280;6669;42.678;23.332;2023-05-14T01:07:05;94929.03;;;13.52;100.00
13209;BME280;6669;42.678;23.332;2023-05-14T01:09:41;94932.50;;;13.59;100.00
13209;BME280;6669;42.678;23.332;2023-05-14T01:12:17;94930.81;;;13.51;100.00
13209;BME280;6669;42.678;23.332;2023-05-14T01:14:53;94930.53;;;13.61;100.00
13209;BME280;6669;42.678;23.332;2023-05-14T01:17:27;94918.53;;;13.67;100.00
13209;BME280;6669;42.678;23.332;2023-05-14T01:19:55;94919.53;;;13.66;100.00
13209;BME280;6669;42.678;23.332;2023-05-14T01:22:25;94920.81;;;13.55;100.00
13209;BME280;6669;42.678;23.332;2023-05-14T01:24:52;94933.41;;;13.66;100.00
13209;BME280;6669;42.678;23.332;2023-05-14T01:27:24;94941.09;;;13.53;100.00
13209;BME280;6669;42.678;23.332;2023-05-14T01:30:00;94959.66;;;13.58;100.00
13209;BME280;6669;42.678;23.332;2023-05-14T01:32:30;94954.41;;;13.58;100.00
13209;BME280;6669;42.678;23.332;2023-05-14T01:35:00;94950.19;;;13.57;100.00
13209;BME280;6669;42.678;23.332;2023-05-14T01:37:30;94933.16;;;13.46;100.00
13209;BME280;6669;42.678;23.332;2023-05-14T01:39:59;94944.88;;;13.50;100.00
13209;BME280;6669;42.678;23.332;2023-05-14T01:42:28;94952.16;;;13.40;100.00
13209;BME280;6669;42.678;23.332;2023-05-14T01:44:56;94959.19;;;13.39;100.00
13209;BME280;6669;42.678;23.332;2023-05-14T01:47:24;94946.13;;;13.39;100.00
13209;BME280;6669;42.678;23.332;2023-05-14T01:49:52;94944.16;;;13.42;100.00
13209;BME280;6669;42.678;23.332;2023-05-14T01:52:20;94942.25;;;13.35;100.00
13209;BME280;6669;42.678;23.332;2023-05-14T01:54:50;94944.31;;;13.40;100.00
13209;BME280;6669;42.678;23.332;2023-05-14T01:57:18;94955.66;;;13.32;100.00
13209;BME280;6669;42.678;23.332;2023-05-14T01:59:47;94958.91;;;13.34;100.00
13209;BME280;6669;42.678;23.332;2023-05-14T02:02:14;94956.47;;;13.33;100.00
13209;BME280;6669;42.678;23.332;2023-05-14T02:04:42;94954.66;;;13.18;100.00
13209;BME280;6669;42.678;23.332;2023-05-14T02:07:10;94951.63;;;13.15;100.00
13209;BME280;6669;42.678;23.332;2023-05-14T02:09:38;94961.94;;;13.08;100.00
13209;BME280;6669;42.678;23.332;2023-05-14T02:12:08;94939.78;;;12.89;100.00
13209;BME280;6669;42.678;23.332;2023-05-14T02:14:36;94953.47;;;12.91;100.00
13209;BME280;6669;42.678;23.332;2023-05-14T02:17:04;94954.56;;;12.82;100.00
13209;BME280;6669;42.678;23.332;2023-05-14T02:19:32;94950.38;;;12.72;100.00
13209;BME280;6669;42.678;23.332;2023-05-14T02:22:00;94958.91;;;12.66;100.00
13209;BME280;6669;42.678;23.332;2023-05-14T02:24:28;94968.72;;;12.64;100.00
13209;BME280;6669;42.678;23.332;2023-05-14T02:26:56;94974.34;;;12.53;100.00
13209;BME280;6669;42.678;23.332;2023-05-14T02:29:28;94961.50;;;12.51;100.00
13209;BME280;6669;42.678;23.332;2023-05-14T02:31:56;94977.28;;;12.50;100.00
13209;BME280;6669;42.678;23.332;2023-05-14T02:34:24;94956.13;;;12.30;100.00
13209;BME280;6669;42.678;23.332;2023-05-14T02:36:52;94969.78;;;12.55;100.00
13209;BME280;6669;42.678;23.332;2023-05-14T02:39:20;94977.94;;;12.52;100.00
13209;BME280;6669;42.678;23.332;2023-05-14T02:41:47;94973.22;;;12.47;100.00
13209;BME280;6669;42.678;23.332;2023-05-14T02:44:16;94986.34;;;12.39;100.00
13209;BME280;6669;42.678;23.332;2023-05-14T02:46:45;94963.97;;;12.21;100.00
13209;BME280;6669;42.678;23.332;2023-05-14T02:49:13;94981.31;;;12.37;100.00
13209;BME280;6669;42.678;23.332;2023-05-14T02:51:41;94979.97;;;12.41;100.00
13209;BME280;6669;42.678;23.332;2023-05-14T02:54:09;94986.06;;;12.34;100.00
13209;BME280;6669;42.678;23.332;2023-05-14T02:56:37;94987.16;;;12.39;100.00
13209;BME280;6669;42.678;23.332;2023-05-14T02:59:05;94990.41;;;12.41;100.00
13209;BME280;6669;42.678;23.332;2023-05-14T03:01:33;94991.06;;;12.43;100.00
13209;BME280;6669;42.678;23.332;2023-05-14T03:04:03;94993.00;;;12.41;100.00
13209;BME280;6669;42.678;23.332;2023-05-14T03:06:31;94991.19;;;12.42;100.00
13209;BME280;6669;42.678;23.332;2023-05-14T03:08:59;94992.22;;;12.41;100.00
13209;BME280;6669;42.678;23.332;2023-05-14T03:11:27;94994.28;;;12.46;100.00
13209;BME280;6669;42.678;23.332;2023-05-14T03:13:55;94973.78;;;12.42;100.00
13209;BME280;6669;42.678;23.332;2023-05-14T03:16:23;94963.28;;;12.51;100.00
13209;BME280;6669;42.678;23.332;2023-05-14T03:18:51;94945.03;;;12.51;100.00
13209;BME280;6669;42.678;23.332;2023-05-14T03:21:20;94960.16;;;12.55;100.00
13209;BME280;6669;42.678;23.332;2023-05-14T03:23:48;94971.75;;;12.53;100.00
13209;BME280;6669;42.678;23.332;2023-05-14T03:26:16;94974.69;;;12.50;100.00
13209;BME280;6669;42.678;23.332;2023-05-14T03:28:44;94975.13;;;12.38;100.00
13209;BME280;6669;42.678;23.332;2023-05-14T03:31:14;94971.09;;;12.27;100.00
13209;BME280;6669;42.678;23.332;2023-05-14T03:33:42;94982.41;;;12.20;100.00
13209;BME280;6669;42.678;23.332;2023-05-14T03:36:10;94973.81;;;12.11;100.00
13209;BME280;6669;42.678;23.332;2023-05-14T03:38:40;94992.84;;;12.12;100.00
13209;BME280;6669;42.678;23.332;2023-05-14T03:41:08;94984.94;;;12.05;100.00
13209;BME280;6669;42.678;23.332;2023-05-14T03:43:36;94981.88;;;11.93;100.00
13209;BME280;6669;42.678;23.332;2023-05-14T03:46:04;94981.06;;;11.92;100.00
13209;BME280;6669;42.678;23.332;2023-05-14T03:48:31;94981.88;;;11.93;100.00
13209;BME280;6669;42.678;23.332;2023-05-14T03:51:00;94984.00;;;11.89;100.00
13209;BME280;6669;42.678;23.332;2023-05-14T03:53:28;94976.56;;;11.86;100.00
13209;BME280;6669;42.678;23.332;2023-05-14T03:55:57;94989.09;;;11.83;100.00
13209;BME280;6669;42.678;23.332;2023-05-14T03:58:25;94990.44;;;11.78;100.00
13209;BME280;6669;42.678;23.332;2023-05-14T04:00:53;94980.44;;;11.82;100.00
13209;BME280;6669;42.678;23.332;2023-05-14T04:03:21;94977.41;;;11.78;100.00
13209;BME280;6669;42.678;23.332;2023-05-14T04:05:49;94983.78;;;11.76;100.00
13209;BME280;6669;42.678;23.332;2023-05-14T04:08:17;94987.28;;;11.83;100.00
13209;BME280;6669;42.678;23.332;2023-05-14T04:10:45;94991.06;;;11.81;100.00
13209;BME280;6669;42.678;23.332;2023-05-14T04:13:15;94976.47;;;11.71;100.00
13209;BME280;6669;42.678;23.332;2023-05-14T04:15:43;94990.88;;;11.82;100.00
13209;BME280;6669;42.678;23.332;2023-05-14T04:18:11;94995.88;;;11.92;100.00
13209;BME280;6669;42.678;23.332;2023-05-14T04:20:39;94994.94;;;11.85;100.00
13209;BME280;6669;42.678;23.332;2023-05-14T04:23:07;95006.19;;;11.85;100.00
13209;BME280;6669;42.678;23.332;2023-05-14T04:25:35;95001.88;;;11.92;100.00
13209;BME280;6669;42.678;23.332;2023-05-14T04:28:03;95003.88;;;11.90;100.00
13209;BME280;6669;42.678;23.332;2023-05-14T04:30:32;95012.19;;;11.86;100.00
13209;BME280;6669;42.678;23.332;2023-05-14T04:33:01;95012.00;;;11.87;100.00
13209;BME280;6669;42.678;23.332;2023-05-14T04:35:29;95011.34;;;11.93;100.00
13209;BME280;6669;42.678;23.332;2023-05-14T04:37:57;95001.88;;;11.92;100.00
13209;BME280;6669;42.678;23.332;2023-05-14T04:40:25;95005.03;;;11.88;100.00
13209;BME280;6669;42.678;23.332;2023-05-14T04:42:53;95021.94;;;11.92;100.00
13209;BME280;6669;42.678;23.332;2023-05-14T04:45:21;95024.22;;;11.95;100.00
13209;BME280;6669;42.678;23.332;2023-05-14T04:47:51;95032.84;;;11.87;100.00
13209;BME280;6669;42.678;23.332;2023-05-14T04:50:19;95033.03;;;11.86;100.00
13209;BME280;6669;42.678;23.332;2023-05-14T04:52:47;95031.56;;;11.83;100.00
13209;BME280;6669;42.678;23.332;2023-05-14T04:55:15;95043.78;;;11.83;100.00
13209;BME280;6669;42.678;23.332;2023-05-14T04:57:43;95039.13;;;11.70;100.00
13209;BME280;6669;42.678;23.332;2023-05-14T05:00:12;95027.63;;;11.56;100.00
13209;BME280;6669;42.678;23.332;2023-05-14T05:02:40;95049.41;;;11.55;100.00
13209;BME280;6669;42.678;23.332;2023-05-14T05:05:10;95058.69;;;11.49;100.00
13209;BME280;6669;42.678;23.332;2023-05-14T05:07:37;95062.13;;;11.50;100.00
13209;BME280;6669;42.678;23.332;2023-05-14T05:10:07;95066.41;;;11.26;100.00
13209;BME280;6669;42.678;23.332;2023-05-14T05:12:35;95071.78;;;11.24;100.00
13209;BME280;6669;42.678;23.332;2023-05-14T05:15:04;95082.34;;;11.23;100.00
13209;BME280;6669;42.678;23.332;2023-05-14T05:17:32;95087.22;;;11.26;100.00
13209;BME280;6669;42.678;23.332;2023-05-14T05:20:00;95067.53;;;11.23;100.00
13209;BME280;6669;42.678;23.332;2023-05-14T05:22:29;95080.72;;;11.22;100.00
13209;BME280;6669;42.678;23.332;2023-05-14T05:24:57;95083.31;;;11.22;100.00
13209;BME280;6669;42.678;23.332;2023-05-14T05:27:25;95058.28;;;11.04;100.00
13209;BME280;6669;42.678;23.332;2023-05-14T05:29:53;95078.13;;;11.05;100.00
13209;BME280;6669;42.678;23.332;2023-05-14T05:32:22;95064.16;;;11.06;100.00
13209;BME280;6669;42.678;23.332;2023-05-14T05:34:50;95082.03;;;11.09;100.00
13209;BME280;6669;42.678;23.332;2023-05-14T05:37:18;95085.13;;;11.05;100.00
13209;BME280;6669;42.678;23.332;2023-05-14T05:39:47;95079.75;;;10.90;100.00
13209;BME280;6669;42.678;23.332;2023-05-14T05:42:15;95067.56;;;10.82;100.00
13209;BME280;6669;42.678;23.332;2023-05-14T05:44:43;95047.56;;;10.58;100.00
13209;BME280;6669;42.678;23.332;2023-05-14T05:47:11;95063.34;;;10.65;100.00
13209;BME280;6669;42.678;23.332;2023-05-14T05:49:41;95067.72;;;10.56;100.00
13209;BME280;6669;42.678;23.332;2023-05-14T05:52:09;95068.38;;;10.58;100.00
13209;BME280;6669;42.678;23.332;2023-05-14T05:54:37;95069.63;;;10.54;100.00
13209;BME280;6669;42.678;23.332;2023-05-14T05:57:07;95037.31;;;10.40;100.00
13209;BME280;6669;42.678;23.332;2023-05-14T05:59:35;95059.50;;;10.34;100.00
13209;BME280;6669;42.678;23.332;2023-05-14T06:02:04;95055.63;;;10.30;100.00
13209;BME280;6669;42.678;23.332;2023-05-14T06:04:31;95052.66;;;10.17;100.00
13209;BME280;6669;42.678;23.332;2023-05-14T06:06:59;95058.34;;;10.12;100.00
13209;BME280;6669;42.678;23.332;2023-05-14T06:09:27;95060.91;;;10.04;100.00
13209;BME280;6669;42.678;23.332;2023-05-14T06:11:55;95058.31;;;10.04;100.00
13209;BME280;6669;42.678;23.332;2023-05-14T06:14:25;95041.88;;;9.95;100.00
13209;BME280;6669;42.678;23.332;2023-05-14T06:16:53;95068.41;;;10.15;100.00
13209;BME280;6669;42.678;23.332;2023-05-14T06:19:21;95073.59;;;10.15;100.00
13209;BME280;6669;42.678;23.332;2023-05-14T06:21:49;95063.03;;;10.17;100.00
13209;BME280;6669;42.678;23.332;2023-05-14T06:24:18;95048.78;;;10.21;100.00
13209;BME280;6669;42.678;23.332;2023-05-14T06:26:46;95059.19;;;10.21;100.00
13209;BME280;6669;42.678;23.332;2023-05-14T06:29:15;95051.69;;;10.18;100.00
13209;BME280;6669;42.678;23.332;2023-05-14T06:31:44;95066.13;;;10.20;100.00
13209;BME280;6669;42.678;23.332;2023-05-14T06:34:12;95038.31;;;9.96;100.00
13209;BME280;6669;42.678;23.332;2023-05-14T06:36:40;95080.72;;;10.13;100.00
13209;BME280;6669;42.678;23.332;2023-05-14T06:39:08;95085.47;;;10.18;100.00
13209;BME280;6669;42.678;23.332;2023-05-14T06:41:36;95054.56;;;10.06;100.00
13209;BME280;6669;42.678;23.332;2023-05-14T06:44:04;95046.94;;;10.05;100.00
13209;BME280;6669;42.678;23.332;2023-05-14T06:46:32;95071.03;;;10.23;100.00
13209;BME280;6669;42.678;23.332;2023-05-14T06:49:01;95053.47;;;10.17;100.00
13209;BME280;6669;42.678;23.332;2023-05-14T06:51:29;95047.97;;;10.20;100.00
13209;BME280;6669;42.678;23.332;2023-05-14T06:53:58;95045.41;;;10.28;100.00
13209;BME280;6669;42.678;23.332;2023-05-14T06:56:26;95035.63;;;10.30;100.00
13209;BME280;6669;42.678;23.332;2023-05-14T06:58:54;95043.31;;;10.40;100.00
13209;BME280;6669;42.678;23.332;2023-05-14T07:01:22;95046.38;;;10.36;100.00
13209;BME280;6669;42.678;23.332;2023-05-14T07:03:50;95043.19;;;10.50;100.00
13209;BME280;6669;42.678;23.332;2023-05-14T07:06:23;95048.22;;;10.68;100.00
13209;BME280;6669;42.678;23.332;2023-05-14T07:08:51;95040.41;;;10.76;100.00
13209;BME280;6669;42.678;23.332;2023-05-14T07:11:19;95044.63;;;10.94;100.00
13209;BME280;6669;42.678;23.332;2023-05-14T07:13:47;95038.63;;;11.02;100.00
13209;BME280;6669;42.678;23.332;2023-05-14T07:16:16;95058.13;;;11.06;100.00
13209;BME280;6669;42.678;23.332;2023-05-14T07:18:44;95081.84;;;11.11;100.00
13209;BME280;6669;42.678;23.332;2023-05-14T07:21:12;95091.78;;;10.99;100.00
13209;BME280;6669;42.678;23.332;2023-05-14T07:23:41;95079.41;;;10.93;100.00
13209;BME280;6669;42.678;23.332;2023-05-14T07:26:10;95071.13;;;10.89;100.00
13209;BME280;6669;42.678;23.332;2023-05-14T07:28:38;95059.59;;;10.84;100.00
13209;BME280;6669;42.678;23.332;2023-05-14T07:31:06;95070.00;;;10.92;100.00
13209;BME280;6669;42.678;23.332;2023-05-14T07:33:35;95063.50;;;10.88;100.00
13209;BME280;6669;42.678;23.332;2023-05-14T07:36:03;95054.75;;;10.81;100.00
13209;BME280;6669;42.678;23.332;2023-05-14T07:38:32;95055.72;;;10.79;100.00
13209;BME280;6669;42.678;23.332;2023-05-14T07:41:01;95071.63;;;10.85;100.00
13209;BME280;6669;42.678;23.332;2023-05-14T07:43:29;95078.31;;;10.87;100.00
13209;BME280;6669;42.678;23.332;2023-05-14T07:45:57;95079.09;;;10.88;100.00
13209;BME280;6669;42.678;23.332;2023-05-14T07:48:26;95063.81;;;10.76;100.00
13209;BME280;6669;42.678;23.332;2023-05-14T07:51:09;95081.53;;;10.98;100.00
13209;BME280;6669;42.678;23.332;2023-05-14T07:53:37;95080.25;;;11.02;100.00
13209;BME280;6669;42.678;23.332;2023-05-14T07:56:07;95092.09;;;11.04;100.00
13209;BME280;6669;42.678;23.332;2023-05-14T07:58:35;95073.25;;;10.86;100.00
13209;BME280;6669;42.678;23.332;2023-05-14T08:01:04;95063.66;;;10.86;100.00
13209;BME280;6669;42.678;23.332;2023-05-14T08:03:35;95083.50;;;11.04;100.00
13209;BME280;6669;42.678;23.332;2023-05-14T08:06:03;95088.53;;;11.05;100.00
13209;BME280;6669;42.678;23.332;2023-05-14T08:08:31;95071.63;;;10.93;100.00
13209;BME280;6669;42.678;23.332;2023-05-14T08:10:59;95073.25;;;10.94;100.00
13209;BME280;6669;42.678;23.332;2023-05-14T08:13:29;95084.47;;;10.94;100.00
13209;BME280;6669;42.678;23.332;2023-05-14T08:16:00;95091.78;;;10.91;100.00
13209;BME280;6669;42.678;23.332;2023-05-14T08:18:28;95051.78;;;10.75;100.00
13209;BME280;6669;42.678;23.332;2023-05-14T08:20:56;95065.28;;;11.04;100.00
13209;BME280;6669;42.678;23.332;2023-05-14T08:23:24;95063.31;;;11.14;100.00
13209;BME280;6669;42.678;23.332;2023-05-14T08:25:52;95054.22;;;11.10;100.00
13209;BME280;6669;42.678;23.332;2023-05-14T08:28:20;95044.63;;;11.10;100.00
13209;BME280;6669;42.678;23.332;2023-05-14T08:30:50;95047.38;;;11.17;100.00
13209;BME280;6669;42.678;23.332;2023-05-14T08:33:18;95049.66;;;11.20;100.00
13209;BME280;6669;42.678;23.332;2023-05-14T08:35:46;95058.75;;;11.24;100.00
13209;BME280;6669;42.678;23.332;2023-05-14T08:38:14;95061.19;;;11.34;100.00
13209;BME280;6669;42.678;23.332;2023-05-14T08:40:46;95061.34;;;11.41;100.00
13209;BME280;6669;42.678;23.332;2023-05-14T08:43:19;95034.03;;;11.28;100.00
13209;BME280;6669;42.678;23.332;2023-05-14T08:45:57;95050.09;;;11.49;100.00
13209;BME280;6669;42.678;23.332;2023-05-14T08:48:31;95020.78;;;11.47;100.00
13209;BME280;6669;42.678;23.332;2023-05-14T08:51:00;95025.19;;;11.54;100.00
13209;BME280;6669;42.678;23.332;2023-05-14T08:53:29;95046.34;;;11.51;100.00
13209;BME280;6669;42.678;23.332;2023-05-14T08:55:59;95033.38;;;11.35;100.00
13209;BME280;6669;42.678;23.332;2023-05-14T08:58:28;95034.28;;;11.50;100.00
13209;BME280;6669;42.678;23.332;2023-05-14T09:00:57;95013.41;;;11.19;100.00
13209;BME280;6669;42.678;23.332;2023-05-14T09:03:26;95040.06;;;11.21;100.00
13209;BME280;6669;42.678;23.332;2023-05-14T09:05:54;95011.59;;;11.11;100.00
13209;BME280;6669;42.678;23.332;2023-05-14T09:08:25;95024.28;;;11.22;100.00
13209;BME280;6669;42.678;23.332;2023-05-14T09:10:53;95040.19;;;11.27;100.00
13209;BME280;6669;42.678;23.332;2023-05-14T09:13:21;95031.25;;;11.38;100.00
13209;BME280;6669;42.678;23.332;2023-05-14T09:15:54;95036.41;;;11.55;100.00
13209;BME280;6669;42.678;23.332;2023-05-14T09:18:24;95026.66;;;11.57;100.00
13209;BME280;6669;42.678;23.332;2023-05-14T09:20:52;95036.66;;;11.76;100.00
13209;BME280;6669;42.678;23.332;2023-05-14T09:23:20;95027.56;;;11.72;100.00
13209;BME280;6669;42.678;23.332;2023-05-14T09:25:48;95041.06;;;11.76;100.00
13209;BME280;6669;42.678;23.332;2023-05-14T09:28:16;95033.13;;;11.61;100.00
13209;BME280;6669;42.678;23.332;2023-05-14T09:30:49;95030.66;;;11.68;100.00
13209;BME280;6669;42.678;23.332;2023-05-14T09:33:26;95021.59;;;11.55;100.00
13209;BME280;6669;42.678;23.332;2023-05-14T09:35:57;95026.19;;;11.45;100.00
13209;BME280;6669;42.678;23.332;2023-05-14T09:38:29;95035.91;;;11.51;100.00
13209;BME280;6669;42.678;23.332;2023-05-14T09:40:58;94999.41;;;11.20;100.00
13209;BME280;6669;42.678;23.332;2023-05-14T09:43:26;95013.69;;;11.40;100.00
13209;BME280;6669;42.678;23.332;2023-05-14T09:45:54;94991.28;;;11.23;100.00
13209;BME280;6669;42.678;23.332;2023-05-14T09:48:22;95006.06;;;11.31;100.00
13209;BME280;6669;42.678;23.332;2023-05-14T09:50:51;95011.25;;;11.31;100.00
13209;BME280;6669;42.678;23.332;2023-05-14T09:53:20;94982.00;;;11.20;100.00
13209;BME280;6669;42.678;23.332;2023-05-14T09:55:48;95012.22;;;11.38;100.00
13209;BME280;6669;42.678;23.332;2023-05-14T09:58:16;95009.94;;;11.43;100.00
13209;BME280;6669;42.678;23.332;2023-05-14T10:00:45;94993.34;;;11.36;100.00
13209;BME280;6669;42.678;23.332;2023-05-14T10:03:14;95017.38;;;11.54;100.00
13209;BME280;6669;42.678;23.332;2023-05-14T10:05:47;95004.00;;;11.57;100.00
13209;BME280;6669;42.678;23.332;2023-05-14T10:08:21;94989.84;;;11.52;100.00
13209;BME280;6669;42.678;23.332;2023-05-14T10:10:51;94974.34;;;11.27;100.00
13209;BME280;6669;42.678;23.332;2023-05-14T10:13:23;94982.28;;;11.42;100.00
13209;BME280;6669;42.678;23.332;2023-05-14T10:15:56;94983.41;;;11.39;100.00
13209;BME280;6669;42.678;23.332;2023-05-14T10:18:30;94980.03;;;11.31;100.00
13209;BME280;6669;42.678;23.332;2023-05-14T10:21:03;94963.75;;;11.37;100.00
13209;BME280;6669;42.678;23.332;2023-05-14T10:23:34;94965.56;;;11.20;100.00
13209;BME280;6669;42.678;23.332;2023-05-14T10:26:04;94960.06;;;11.23;100.00
13209;BME280;6669;42.678;23.332;2023-05-14T10:28:32;94974.22;;;11.20;100.00
13209;BME280;6669;42.678;23.332;2023-05-14T10:31:00;94982.50;;;11.24;100.00
13209;BME280;6669;42.678;23.332;2023-05-14T10:33:29;94976.63;;;11.13;100.00
13209;BME280;6669;42.678;23.332;2023-05-14T10:36:00;94976.16;;;11.18;100.00
13209;BME280;6669;42.678;23.332;2023-05-14T10:38:30;94981.69;;;11.07;100.00
13209;BME280;6669;42.678;23.332;2023-05-14T10:41:01;94970.97;;;11.10;100.00
13209;BME280;6669;42.678;23.332;2023-05-14T10:43:30;94961.84;;;11.14;100.00
13209;BME280;6669;42.678;23.332;2023-05-14T10:46:03;94967.50;;;11.26;100.00
13209;BME280;6669;42.678;23.332;2023-05-14T10:48:32;94957.63;;;11.21;100.00
13209;BME280;6669;42.678;23.332;2023-05-14T10:51:00;94959.84;;;11.33;100.00
13209;BME280;6669;42.678;23.332;2023-05-14T10:53:33;94971.88;;;11.34;100.00
13209;BME280;6669;42.678;23.332;2023-05-14T10:56:10;94970.53;;;11.46;100.00
13209;BME280;6669;42.678;23.332;2023-05-14T10:58:40;94959.03;;;11.32;100.00
13209;BME280;6669;42.678;23.332;2023-05-14T11:01:10;94948.22;;;11.52;100.00
13209;BME280;6669;42.678;23.332;2023-05-14T11:03:40;94942.38;;;11.50;100.00
13209;BME280;6669;42.678;23.332;2023-05-14T11:06:10;94956.13;;;11.67;100.00
13209;BME280;6669;42.678;23.332;2023-05-14T11:08:39;94964.72;;;11.75;100.00
13209;BME280;6669;42.678;23.332;2023-05-14T11:11:09;94965.19;;;11.79;100.00
13209;BME280;6669;42.678;23.332;2023-05-14T11:13:38;94945.38;;;11.70;100.00
13209;BME280;6669;42.678;23.332;2023-05-14T11:16:08;94957.88;;;11.74;100.00
13209;BME280;6669;42.678;23.332;2023-05-14T11:18:41;94959.19;;;11.78;100.00
13209;BME280;6669;42.678;23.332;2023-05-14T11:21:10;94963.69;;;11.85;100.00
13209;BME280;6669;42.678;23.332;2023-05-14T11:23:38;94968.88;;;11.85;100.00
13209;BME280;6669;42.678;23.332;2023-05-14T11:26:06;94963.25;;;11.73;100.00
13209;BME280;6669;42.678;23.332;2023-05-14T11:28:36;94957.19;;;11.81;100.00
13209;BME280;6669;42.678;23.332;2023-05-14T11:31:05;94925.44;;;11.54;100.00
13209;BME280;6669;42.678;23.332;2023-05-14T11:33:34;94930.31;;;11.57;100.00
13209;BME280;6669;42.678;23.332;2023-05-14T11:36:03;94949.84;;;11.84;100.00
13209;BME280;6669;42.678;23.332;2023-05-14T11:38:31;94965.53;;;11.76;100.00
13209;BME280;6669;42.678;23.332;2023-05-14T11:40:59;94959.84;;;11.72;100.00
13209;BME280;6669;42.678;23.332;2023-05-14T11:43:29;94950.22;;;11.81;100.00
13209;BME280;6669;42.678;23.332;2023-05-14T11:45:59;94949.38;;;11.81;100.00
13209;BME280;6669;42.678;23.332;2023-05-14T11:48:27;94929.81;;;11.85;100.00
13209;BME280;6669;42.678;23.332;2023-05-14T11:50:55;94958.66;;;12.15;100.00
13209;BME280;6669;42.678;23.332;2023-05-14T11:53:25;94941.47;;;12.05;100.00
13209;BME280;6669;42.678;23.332;2023-05-14T11:55:54;94959.59;;;12.22;100.00
13209;BME280;6669;42.678;23.332;2023-05-14T11:58:23;94926.00;;;12.27;100.00
13209;BME280;6669;42.678;23.332;2023-05-14T12:00:52;94930.25;;;12.43;100.00
13209;BME280;6669;42.678;23.332;2023-05-14T12:03:25;94939.41;;;12.39;100.00
13209;BME280;6669;42.678;23.332;2023-05-14T12:05:56;94938.41;;;12.63;100.00
13209;BME280;6669;42.678;23.332;2023-05-14T12:08:26;94914.69;;;12.73;100.00
13209;BME280;6669;42.678;23.332;2023-05-14T12:10:56;94908.84;;;12.86;100.00
13209;BME280;6669;42.678;23.332;2023-05-14T12:13:25;94912.34;;;13.23;100.00
13209;BME280;6669;42.678;23.332;2023-05-14T12:15:54;94908.69;;;13.17;100.00
13209;BME280;6669;42.678;23.332;2023-05-14T12:18:26;94920.28;;;13.30;100.00
13209;BME280;6669;42.678;23.332;2023-05-14T12:21:00;94902.00;;;13.30;100.00
13209;BME280;6669;42.678;23.332;2023-05-14T12:23:29;94902.38;;;13.42;100.00
13209;BME280;6669;42.678;23.332;2023-05-14T12:26:00;94898.41;;;13.46;100.00
13209;BME280;6669;42.678;23.332;2023-05-14T12:28:29;94898.75;;;13.57;100.00
13209;BME280;6669;42.678;23.332;2023-05-14T12:30:58;94903.16;;;13.57;100.00
13209;BME280;6669;42.678;23.332;2023-05-14T12:33:30;94895.59;;;13.62;100.00
13209;BME280;6669;42.678;23.332;2023-05-14T12:35:59;94904.19;;;13.41;100.00
13209;BME280;6669;42.678;23.332;2023-05-14T12:38:45;94867.00;;;13.09;100.00
13209;BME280;6669;42.678;23.332;2023-05-14T12:41:14;94870.53;;;13.01;100.00
13209;BME280;6669;42.678;23.332;2023-05-14T12:43:43;94888.16;;;12.99;100.00
13209;BME280;6669;42.678;23.332;2023-05-14T12:46:17;94877.44;;;13.09;100.00
13209;BME280;6669;42.678;23.332;2023-05-14T12:48:47;94882.59;;;13.02;100.00
13209;BME280;6669;42.678;23.332;2023-05-14T12:51:19;94879.00;;;13.03;100.00
13209;BME280;6669;42.678;23.332;2023-05-14T12:53:47;94874.09;;;12.85;100.00
13209;BME280;6669;42.678;23.332;2023-05-14T12:56:17;94880.75;;;12.88;100.00
13209;BME280;6669;42.678;23.332;2023-05-14T12:58:46;94870.16;;;12.74;100.00